createdAt,value
2023-03-15T00:00:07.906Z,9.53
2023-03-15T00:02:36.007Z,11.63
2023-03-15T00:05:04.815Z,6.93
2023-03-15T00:07:32.965Z,5.27
2023-03-15T00:10:02.351Z,6.07
2023-03-15T00:12:30.129Z,4.33
2023-03-15T00:14:58.068Z,6.27
2023-03-15T00:17:25.927Z,8.03
2023-03-15T00:19:53.831Z,5.63
2023-03-15T00:22:23.343Z,6.40
2023-03-15T00:24:51.279Z,10.10
2023-03-15T00:27:20.761Z,7.30
2023-03-15T00:29:48.693Z,8.37
2023-03-15T00:32:16.465Z,6.27
2023-03-15T00:34:49.489Z,9.90
2023-03-15T00:37:21.809Z,6.93
2023-03-15T00:39:49.760Z,4.67
2023-03-15T00:42:17.679Z,7.67
2023-03-15T00:44:46.945Z,6.57
2023-03-15T00:47:15.957Z,9.57
2023-03-15T00:49:43.764Z,9.67
2023-03-15T00:52:12.517Z,8.70
2023-03-15T00:54:41.847Z,12.87
2023-03-15T00:57:09.784Z,16.13
2023-03-15T00:59:37.729Z,10.10
2023-03-15T01:02:07.845Z,9.23
2023-03-15T01:04:36.374Z,8.07
2023-03-15T01:07:04.458Z,8.37
2023-03-15T01:09:32.293Z,8.40
2023-03-15T01:12:00.328Z,10.03
2023-03-15T01:14:28.144Z,13.63
2023-03-15T01:16:56.025Z,9.10
2023-03-15T01:19:25.132Z,7.63
2023-03-15T01:21:53.254Z,17.13
2023-03-15T01:24:21.030Z,19.53
2023-03-15T01:26:48.810Z,18.20
2023-03-15T01:29:17.884Z,16.23
2023-03-15T01:31:45.750Z,14.43
2023-03-15T01:34:13.508Z,18.13
2023-03-15T01:36:42.595Z,15.43
2023-03-15T01:39:11.169Z,11.90
2023-03-15T01:41:39.212Z,10.47
2023-03-15T01:44:10.026Z,12.67
2023-03-15T01:46:38.067Z,12.50
2023-03-15T01:49:10.040Z,7.33
2023-03-15T01:51:43.918Z,8.13
2023-03-15T01:54:16.347Z,9.33
2023-03-15T01:56:49.135Z,4.83
2023-03-15T01:59:20.852Z,13.83
2023-03-15T02:01:49.445Z,7.97
2023-03-15T02:04:24.900Z,4.23
2023-03-15T02:06:59.182Z,9.70
2023-03-15T02:09:31.822Z,4.10
2023-03-15T02:12:00.636Z,6.57
2023-03-15T02:14:30.018Z,9.00
2023-03-15T02:16:57.749Z,6.27
2023-03-15T02:19:39.025Z,9.37
2023-03-15T02:22:17.284Z,11.73
2023-03-15T02:24:56.373Z,4.27
2023-03-15T02:27:29.885Z,4.93
2023-03-15T02:29:58.321Z,5.10
2023-03-15T02:32:26.206Z,7.87
2023-03-15T02:34:54.500Z,10.10
2023-03-15T02:37:22.474Z,7.10
2023-03-15T02:39:50.204Z,9.07
2023-03-15T02:42:19.330Z,10.37
2023-03-15T02:44:52.270Z,5.80
2023-03-15T02:47:23.778Z,8.97
2023-03-15T02:49:53.857Z,8.70
2023-03-15T02:52:22.398Z,7.57
2023-03-15T02:54:50.267Z,7.30
2023-03-15T02:57:19.679Z,10.50
2023-03-15T02:59:50.890Z,7.30
2023-03-15T03:02:19.782Z,6.90
2023-03-15T03:04:47.639Z,7.70
2023-03-15T03:07:15.421Z,7.87
2023-03-15T03:09:43.129Z,6.73
2023-03-15T03:12:11.271Z,7.73
2023-03-15T03:14:39.007Z,7.20
2023-03-15T03:17:08.439Z,3.73
2023-03-15T03:19:36.168Z,6.67
2023-03-15T03:22:04.126Z,5.37
2023-03-15T03:24:32.346Z,6.43
2023-03-15T03:27:00.148Z,6.30
2023-03-15T03:29:28.327Z,9.67
2023-03-15T03:31:56.253Z,10.37
2023-03-15T03:34:25.362Z,7.63
2023-03-15T03:36:53.440Z,6.90
2023-03-15T03:39:21.189Z,6.77
2023-03-15T03:41:49.122Z,7.07
2023-03-15T03:44:16.943Z,8.43
2023-03-15T03:46:44.880Z,7.60
2023-03-15T03:49:13.128Z,3.87
2023-03-15T03:51:42.287Z,9.40
2023-03-15T03:54:10.029Z,3.23
2023-03-15T03:56:37.917Z,4.77
2023-03-15T03:59:05.701Z,5.80
2023-03-15T04:01:33.628Z,4.57
2023-03-15T04:04:01.313Z,5.57
2023-03-15T04:06:29.101Z,8.97
2023-03-15T04:08:58.428Z,7.77
2023-03-15T04:11:27.052Z,9.93
2023-03-15T04:13:54.883Z,4.33
2023-03-15T04:16:24.727Z,9.03
2023-03-15T04:18:56.503Z,9.83
2023-03-15T04:21:24.365Z,4.97
2023-03-15T04:23:52.195Z,7.03
2023-03-15T04:26:21.369Z,5.33
2023-03-15T04:28:49.304Z,9.60
2023-03-15T04:31:17.107Z,5.17
2023-03-15T04:33:44.891Z,9.13
2023-03-15T04:36:19.898Z,5.87
2023-03-15T04:38:47.725Z,9.10
2023-03-15T04:41:15.895Z,5.43
2023-03-15T04:43:46.062Z,6.73
2023-03-15T04:46:13.950Z,6.53
2023-03-15T04:48:42.372Z,6.30
2023-03-15T04:51:10.345Z,5.40
2023-03-15T04:53:39.128Z,7.83
2023-03-15T04:56:07.488Z,5.40
2023-03-15T04:58:35.366Z,7.67
2023-03-15T05:01:04.949Z,8.27
2023-03-15T05:03:32.862Z,7.60
2023-03-15T05:06:08.048Z,7.33
2023-03-15T05:08:37.250Z,3.90
2023-03-15T05:11:05.325Z,7.70
2023-03-15T05:13:33.468Z,8.13
2023-03-15T05:16:01.489Z,10.67
2023-03-15T05:18:30.990Z,10.57
2023-03-15T05:20:58.946Z,4.37
2023-03-15T05:23:27.293Z,7.77
2023-03-15T05:25:56.706Z,6.57
2023-03-15T05:28:25.894Z,8.07
2023-03-15T05:30:54.444Z,8.27
2023-03-15T05:33:22.991Z,6.57
2023-03-15T05:35:56.055Z,6.60
2023-03-15T05:38:26.588Z,9.90
2023-03-15T05:40:54.765Z,6.13
2023-03-15T05:43:22.753Z,4.70
2023-03-15T05:45:50.792Z,4.27
2023-03-15T05:48:18.842Z,5.37
2023-03-15T05:50:46.801Z,5.13
2023-03-15T05:53:16.734Z,7.37
2023-03-15T05:55:44.659Z,5.23
2023-03-15T05:58:12.745Z,5.03
2023-03-15T06:00:41.235Z,3.67
2023-03-15T06:03:09.473Z,7.83
2023-03-15T06:05:37.362Z,4.33
2023-03-15T06:08:05.688Z,6.43
2023-03-15T06:10:35.477Z,6.30
2023-03-15T06:13:03.374Z,8.53
2023-03-15T06:15:31.118Z,7.67
2023-03-15T06:17:58.827Z,7.47
2023-03-15T06:20:26.706Z,8.03
2023-03-15T06:22:54.653Z,6.70
2023-03-15T06:25:22.480Z,6.67
2023-03-15T06:27:51.967Z,6.00
2023-03-15T06:30:20.501Z,5.20
2023-03-15T06:32:48.309Z,5.73
2023-03-15T06:35:16.328Z,4.20
2023-03-15T06:37:44.141Z,4.97
2023-03-15T06:40:13.908Z,5.10
2023-03-15T06:42:42.735Z,8.10
2023-03-15T06:45:13.219Z,7.33
2023-03-15T06:47:41.073Z,5.07
2023-03-15T06:50:10.157Z,8.53
2023-03-15T06:52:38.743Z,6.07
2023-03-15T06:55:07.947Z,7.20
2023-03-15T06:57:35.772Z,6.93
2023-03-15T07:00:07.137Z,8.03
2023-03-15T07:02:37.587Z,6.20
2023-03-15T07:05:05.955Z,7.37
2023-03-15T07:07:33.902Z,9.43
2023-03-15T07:10:01.731Z,9.40
2023-03-15T07:12:29.581Z,6.90
2023-03-15T07:14:57.514Z,7.87
2023-03-15T07:17:25.956Z,8.40
2023-03-15T07:19:56.825Z,8.07
2023-03-15T07:22:25.281Z,9.70
2023-03-15T07:24:53.425Z,13.17
2023-03-15T07:27:21.223Z,21.47
2023-03-15T07:29:49.979Z,13.07
2023-03-15T07:32:18.076Z,17.27
2023-03-15T07:34:46.142Z,16.03
2023-03-15T07:37:15.921Z,25.10
2023-03-15T07:39:44.053Z,11.60
2023-03-15T07:42:12.182Z,17.90
2023-03-15T07:44:40.007Z,15.10
2023-03-15T07:47:08.358Z,9.53
2023-03-15T07:49:36.149Z,9.70
2023-03-15T07:52:04.439Z,10.60
2023-03-15T07:54:34.347Z,7.73
2023-03-15T07:57:02.061Z,8.97
2023-03-15T07:59:29.847Z,8.23
2023-03-15T08:01:57.707Z,30.33
2023-03-15T08:04:25.752Z,8.73
2023-03-15T08:06:53.606Z,6.27
2023-03-15T08:09:21.385Z,10.13
2023-03-15T08:11:50.548Z,7.97
2023-03-15T08:14:18.439Z,5.57
2023-03-15T08:16:46.397Z,7.00
2023-03-15T08:19:14.192Z,8.37
2023-03-15T08:21:45.264Z,4.07
2023-03-15T08:24:13.215Z,7.03
2023-03-15T08:26:43.229Z,10.43
2023-03-15T08:29:12.301Z,9.60
2023-03-15T08:31:40.514Z,17.43
2023-03-15T08:34:08.481Z,20.53
2023-03-15T08:36:36.307Z,16.33
2023-03-15T08:39:05.514Z,8.00
2023-03-15T08:41:33.931Z,10.43
2023-03-15T08:44:02.067Z,8.53
2023-03-15T08:46:31.977Z,8.77
2023-03-15T08:48:59.820Z,4.13
2023-03-15T08:51:28.144Z,7.93
2023-03-15T08:53:57.007Z,8.83
2023-03-15T08:56:24.708Z,9.67
2023-03-15T08:58:52.527Z,33.73
2023-03-15T09:01:20.267Z,17.90
2023-03-15T09:03:50.636Z,12.63
2023-03-15T09:06:18.884Z,7.73
2023-03-15T09:08:46.645Z,5.63
2023-03-15T09:11:14.866Z,5.50
2023-03-15T09:13:42.659Z,7.50
2023-03-15T09:16:10.455Z,5.13
2023-03-15T09:18:40.631Z,3.67
2023-03-15T09:21:09.868Z,5.53
2023-03-15T09:23:41.044Z,9.30
2023-03-15T09:26:08.841Z,8.67
2023-03-15T09:28:36.648Z,8.67
2023-03-15T09:31:07.398Z,5.13
2023-03-15T09:33:35.271Z,6.50
2023-03-15T09:36:04.467Z,5.27
2023-03-15T09:38:33.681Z,9.13
2023-03-15T09:41:03.691Z,7.33
2023-03-15T09:43:56.001Z,8.00
2023-03-15T09:46:29.878Z,9.17
2023-03-15T09:49:05.195Z,6.43
2023-03-15T09:51:40.969Z,8.83
2023-03-15T09:54:13.864Z,6.37
2023-03-15T09:56:47.085Z,7.23
2023-03-15T09:59:17.630Z,13.67
2023-03-15T10:01:46.521Z,7.97
2023-03-15T10:04:23.895Z,10.77
2023-03-15T10:06:56.815Z,9.83
2023-03-15T10:09:27.990Z,8.03
2023-03-15T10:12:04.420Z,7.93
2023-03-15T10:14:48.005Z,6.73
2023-03-15T10:17:21.022Z,3.70
2023-03-15T10:19:51.242Z,6.07
2023-03-15T10:22:26.800Z,3.87
2023-03-15T10:25:00.522Z,4.87
2023-03-15T10:27:35.813Z,5.47
2023-03-15T10:30:10.604Z,6.63
2023-03-15T10:32:42.035Z,5.33
2023-03-15T10:35:16.282Z,3.40
2023-03-15T10:37:44.666Z,3.80
2023-03-15T10:40:16.952Z,6.73
2023-03-15T10:42:46.540Z,2.90
2023-03-15T10:45:24.812Z,4.50
2023-03-15T10:48:00.361Z,5.27
2023-03-15T10:50:31.122Z,4.80
2023-03-15T10:53:00.038Z,5.10
2023-03-15T10:55:33.880Z,3.67
2023-03-15T10:58:19.569Z,3.57
2023-03-15T11:00:51.913Z,4.30
2023-03-15T11:03:21.283Z,6.13
2023-03-15T11:05:51.450Z,5.90
2023-03-15T11:08:21.143Z,5.83
2023-03-15T11:10:57.539Z,3.10
2023-03-15T11:13:26.789Z,4.83
2023-03-15T11:16:03.767Z,3.87
2023-03-15T11:18:36.139Z,2.70
2023-03-15T11:21:08.346Z,4.13
2023-03-15T11:23:38.992Z,8.57
2023-03-15T11:26:12.301Z,3.30
2023-03-15T11:28:45.791Z,1.90
2023-03-15T11:31:13.981Z,2.33
2023-03-15T11:33:48.438Z,2.00
2023-03-15T11:36:20.102Z,6.97
2023-03-15T11:38:48.385Z,6.07
2023-03-15T11:41:26.658Z,5.40
2023-03-15T11:44:03.687Z,5.13
2023-03-15T11:46:35.620Z,3.70
2023-03-15T11:49:12.123Z,3.50
2023-03-15T11:51:40.867Z,4.43
2023-03-15T11:54:14.644Z,3.47
2023-03-15T11:56:58.955Z,4.07
2023-03-15T11:59:30.018Z,3.97
2023-03-15T12:02:01.003Z,2.77
2023-03-15T12:04:45.003Z,5.33
2023-03-15T12:07:40.759Z,6.10
2023-03-15T12:10:46.809Z,3.73
2023-03-15T12:13:25.950Z,3.77
2023-03-15T12:15:54.387Z,3.27
2023-03-15T12:18:27.875Z,5.80
2023-03-15T12:21:15.976Z,2.97
2023-03-15T12:23:50.333Z,1.50
2023-03-15T12:26:26.148Z,4.87
2023-03-15T12:29:06.770Z,4.17
2023-03-15T12:31:59.663Z,4.50
2023-03-15T12:34:38.278Z,3.77
2023-03-15T12:37:08.778Z,9.00
2023-03-15T12:39:48.805Z,5.27
2023-03-15T12:42:54.248Z,5.17
2023-03-15T12:45:45.652Z,3.97
2023-03-15T12:48:22.741Z,1.60
2023-03-15T12:50:53.745Z,1.80
2023-03-15T12:53:28.720Z,2.53
2023-03-15T12:56:07.982Z,4.20
2023-03-15T12:58:38.364Z,2.73
2023-03-15T13:01:09.041Z,1.57
2023-03-15T13:03:37.498Z,2.30
2023-03-15T13:06:12.959Z,1.13
2023-03-15T13:08:49.054Z,3.17
2023-03-15T13:11:25.755Z,1.73
2023-03-15T13:14:07.087Z,1.83
2023-03-15T13:16:40.121Z,1.43
2023-03-15T13:19:18.515Z,5.43
2023-03-15T13:22:12.974Z,1.70
2023-03-15T13:24:48.365Z,0.50
2023-03-15T13:27:29.330Z,0.80
2023-03-15T13:29:59.302Z,0.73
2023-03-15T13:32:28.496Z,1.07
2023-03-15T13:34:58.282Z,0.77
2023-03-15T13:37:29.038Z,0.50
2023-03-15T13:40:00.748Z,0.97
2023-03-15T13:42:29.514Z,2.57
2023-03-15T13:45:11.287Z,3.80
2023-03-15T13:47:41.430Z,3.87
2023-03-15T13:50:13.970Z,1.73
2023-03-15T13:52:42.773Z,3.00
2023-03-15T13:55:13.514Z,2.50
2023-03-15T13:57:41.781Z,1.80
2023-03-15T14:00:12.501Z,2.00
2023-03-15T14:02:49.446Z,2.73
2023-03-15T14:05:19.602Z,1.13
2023-03-15T14:07:49.659Z,2.90
2023-03-15T14:10:29.032Z,3.47
2023-03-15T14:12:57.852Z,1.60
2023-03-15T14:15:28.331Z,2.77
2023-03-15T14:18:02.457Z,4.23
2023-03-15T14:20:33.691Z,2.37
2023-03-15T14:23:03.272Z,2.60
2023-03-15T14:25:36.035Z,2.50
2023-03-15T14:28:05.980Z,1.60
2023-03-15T14:30:37.036Z,3.70
2023-03-15T14:33:08.849Z,2.20
2023-03-15T14:35:43.888Z,1.43
2023-03-15T14:38:18.877Z,4.43
2023-03-15T14:40:47.362Z,4.03
2023-03-15T14:43:15.166Z,2.10
2023-03-15T14:45:45.182Z,2.33
2023-03-15T14:48:17.675Z,2.27
2023-03-15T14:50:46.873Z,3.30
2023-03-15T14:53:23.448Z,4.73
2023-03-15T14:55:51.416Z,5.33
2023-03-15T14:58:20.820Z,1.30
2023-03-15T15:00:52.479Z,1.80
2023-03-15T15:03:31.223Z,3.40
2023-03-15T15:05:59.657Z,4.90
2023-03-15T15:08:28.221Z,4.50
2023-03-15T15:10:57.850Z,1.90
2023-03-15T15:13:28.242Z,1.97
2023-03-15T15:15:58.969Z,1.73
2023-03-15T15:18:30.099Z,2.27
2023-03-15T15:21:00.880Z,1.63
2023-03-15T15:23:30.712Z,2.20
2023-03-15T15:26:01.225Z,4.33
2023-03-15T15:28:35.939Z,1.73
2023-03-15T15:31:05.997Z,1.80
2023-03-15T15:33:35.306Z,2.77
2023-03-15T15:36:04.992Z,3.27
2023-03-15T15:38:38.403Z,7.30
2023-03-15T15:41:07.675Z,3.53
2023-03-15T15:43:35.530Z,2.80
2023-03-15T15:46:03.493Z,4.57
2023-03-15T15:48:31.347Z,2.30
2023-03-15T15:51:00.982Z,3.03
2023-03-15T15:53:33.685Z,4.50
2023-03-15T15:56:01.525Z,2.33
2023-03-15T15:58:29.512Z,5.17
2023-03-15T16:00:57.292Z,7.27
2023-03-15T16:03:26.017Z,3.77
2023-03-15T16:05:53.872Z,3.40
2023-03-15T16:08:25.577Z,3.23
2023-03-15T16:10:53.506Z,4.60
2023-03-15T16:13:21.265Z,2.57
2023-03-15T16:15:49.056Z,3.27
2023-03-15T16:18:16.821Z,3.50
2023-03-15T16:20:44.699Z,4.43
2023-03-15T16:23:20.445Z,6.93
2023-03-15T16:25:52.069Z,4.30
2023-03-15T16:28:20.127Z,5.10
2023-03-15T16:30:48.237Z,3.30
2023-03-15T16:33:19.030Z,5.47
2023-03-15T16:35:49.936Z,3.07
2023-03-15T16:38:24.090Z,4.80
2023-03-15T16:40:54.177Z,2.03
2023-03-15T16:43:22.165Z,3.93
2023-03-15T16:45:50.660Z,3.67
2023-03-15T16:48:18.543Z,15.30
2023-03-15T16:50:48.181Z,8.70
2023-03-15T16:53:16.482Z,5.90
2023-03-15T16:55:44.391Z,6.70
2023-03-15T16:58:18.292Z,2.30
2023-03-15T17:00:48.136Z,4.90
2023-03-15T17:03:17.619Z,6.33
2023-03-15T17:05:47.527Z,8.50
2023-03-15T17:08:20.011Z,4.67
2023-03-15T17:10:49.363Z,6.93
2023-03-15T17:13:24.524Z,3.43
2023-03-15T17:15:52.589Z,4.37
2023-03-15T17:18:21.912Z,4.23
2023-03-15T17:20:50.985Z,3.77
2023-03-15T17:23:20.958Z,6.17
2023-03-15T17:25:49.972Z,3.50
2023-03-15T17:28:19.151Z,4.17
2023-03-15T17:30:48.483Z,3.60
2023-03-15T17:33:17.620Z,5.07
2023-03-15T17:35:50.076Z,9.97
2023-03-15T17:38:21.780Z,8.53
2023-03-15T17:40:49.942Z,7.47
2023-03-15T17:43:19.199Z,5.77
2023-03-15T17:45:47.555Z,5.63
2023-03-15T17:48:15.510Z,4.40
2023-03-15T17:50:45.119Z,4.77
2023-03-15T17:53:17.972Z,5.83
2023-03-15T17:55:47.730Z,6.87
2023-03-15T17:58:20.787Z,5.43
2023-03-15T18:00:49.711Z,7.33
2023-03-15T18:03:18.267Z,5.67
2023-03-15T18:05:47.361Z,6.13
2023-03-15T18:08:18.211Z,6.80
2023-03-15T18:10:47.262Z,6.73
2023-03-15T18:13:18.202Z,7.27
2023-03-15T18:15:49.364Z,5.23
2023-03-15T18:18:17.356Z,6.60
2023-03-15T18:20:46.206Z,7.80
2023-03-15T18:23:15.198Z,6.20
2023-03-15T18:25:43.828Z,21.80
2023-03-15T18:28:11.974Z,18.20
2023-03-15T18:30:40.727Z,12.00
2023-03-15T18:33:12.399Z,11.20
2023-03-15T18:35:40.201Z,6.00
2023-03-15T18:38:07.997Z,4.13
2023-03-15T18:40:35.789Z,7.40
2023-03-15T18:43:05.419Z,8.57
2023-03-15T18:45:42.972Z,12.30
2023-03-15T18:51:12.174Z,8.53
2023-03-15T18:53:40.896Z,8.77
2023-03-15T18:56:13.756Z,7.67
2023-03-15T18:58:41.493Z,12.37
2023-03-15T19:01:10.079Z,12.23
2023-03-15T19:03:39.256Z,11.53
2023-03-15T19:06:08.943Z,12.17
2023-03-15T19:08:36.944Z,14.97
2023-03-15T19:11:06.063Z,11.07
2023-03-15T19:13:33.854Z,7.87
2023-03-15T19:16:01.773Z,11.20
2023-03-15T19:18:32.292Z,7.37
2023-03-15T19:21:02.505Z,8.60
2023-03-15T19:23:30.306Z,5.77
2023-03-15T19:25:58.111Z,6.70
2023-03-15T19:28:26.074Z,3.67
2023-03-15T19:30:53.976Z,2.20
2023-03-15T19:33:21.822Z,3.50
2023-03-15T19:35:49.863Z,4.50
2023-03-15T19:38:19.971Z,6.17
2023-03-15T19:40:47.737Z,4.67
2023-03-15T19:43:16.086Z,3.90
2023-03-15T19:45:44.145Z,6.43
2023-03-15T19:48:11.899Z,3.17
2023-03-15T19:50:39.707Z,8.10
2023-03-15T19:53:07.584Z,4.97
2023-03-15T19:55:36.787Z,5.37
2023-03-15T19:58:05.195Z,5.50
2023-03-15T20:00:33.029Z,5.87
2023-03-15T20:03:00.981Z,7.37
2023-03-15T20:05:28.856Z,4.90
2023-03-15T20:07:56.577Z,6.23
2023-03-15T20:10:24.601Z,4.77
2023-03-15T20:12:58.905Z,3.90
2023-03-15T20:15:29.304Z,6.80
2023-03-15T20:17:57.318Z,6.33
2023-03-15T20:20:25.303Z,7.63
2023-03-15T20:22:53.266Z,7.00
2023-03-15T20:25:21.815Z,7.27
2023-03-15T20:27:49.825Z,6.50
2023-03-15T20:30:19.956Z,4.87
2023-03-15T20:32:48.147Z,6.13
2023-03-15T20:35:16.228Z,8.67
2023-03-15T20:37:44.068Z,6.97
2023-03-15T20:40:14.382Z,8.87
2023-03-15T20:42:42.277Z,8.27
2023-03-15T20:45:12.330Z,7.73
2023-03-15T20:47:42.971Z,5.73
2023-03-15T20:50:13.088Z,5.10
2023-03-15T20:52:42.565Z,6.17
2023-03-15T20:55:11.211Z,3.67
2023-03-15T20:57:41.254Z,7.43
2023-03-15T21:00:12.487Z,6.07
2023-03-15T21:02:41.782Z,10.10
2023-03-15T21:05:10.211Z,4.53
2023-03-15T21:07:38.131Z,4.90
2023-03-15T21:10:07.122Z,4.90
2023-03-15T21:12:35.005Z,4.20
2023-03-15T21:15:03.799Z,4.63
2023-03-15T21:17:31.604Z,6.63
2023-03-15T21:20:01.017Z,3.00
2023-03-15T21:22:29.149Z,4.77
2023-03-15T21:24:56.957Z,4.33
2023-03-15T21:27:26.296Z,7.03
2023-03-15T21:29:54.595Z,6.33
2023-03-15T21:32:22.901Z,5.67
2023-03-15T21:34:50.797Z,8.53
2023-03-15T21:37:20.375Z,8.60
2023-03-15T21:39:48.218Z,4.67
2023-03-15T21:42:16.078Z,5.83
2023-03-15T21:44:43.896Z,7.27
2023-03-15T21:47:11.623Z,5.27
2023-03-15T21:49:44.581Z,6.67
2023-03-15T21:52:12.533Z,5.17
2023-03-15T21:54:42.070Z,7.57
2023-03-15T21:57:10.103Z,6.50
2023-03-15T21:59:38.122Z,9.90
2023-03-15T22:02:08.068Z,5.27
2023-03-15T22:04:36.099Z,6.00
2023-03-15T22:07:04.079Z,4.67
2023-03-15T22:09:32.091Z,6.20
2023-03-15T22:12:01.492Z,5.53
2023-03-15T22:14:29.460Z,6.17
2023-03-15T22:16:57.408Z,6.67
2023-03-15T22:19:25.425Z,4.53
2023-03-15T22:21:53.440Z,7.43
2023-03-15T22:24:21.327Z,6.17
2023-03-15T22:26:50.504Z,7.47
2023-03-15T22:29:20.353Z,3.53
2023-03-15T22:31:48.538Z,7.20
2023-03-15T22:34:16.814Z,5.23
2023-03-15T22:36:44.725Z,5.43
2023-03-15T22:39:12.948Z,5.37
2023-03-15T22:41:40.856Z,5.07
2023-03-15T22:44:08.745Z,2.23
2023-03-15T22:46:38.323Z,9.17
2023-03-15T22:49:06.341Z,6.23
2023-03-15T22:51:34.784Z,3.40
2023-03-15T22:54:03.296Z,8.73
2023-03-15T22:56:31.494Z,4.27
2023-03-15T22:58:59.559Z,6.40
2023-03-15T23:01:27.549Z,5.83
2023-03-15T23:03:58.037Z,5.23
2023-03-15T23:06:26.157Z,5.77
2023-03-15T23:08:54.213Z,8.97
2023-03-15T23:11:22.398Z,7.80
2023-03-15T23:13:50.437Z,6.83
2023-03-15T23:16:19.028Z,6.17
2023-03-15T23:18:49.220Z,4.40
2023-03-15T23:21:18.607Z,5.53
2023-03-15T23:23:46.645Z,4.33
2023-03-15T23:26:16.718Z,3.70
2023-03-15T23:28:44.671Z,5.80
2023-03-15T23:31:12.494Z,4.33
2023-03-15T23:33:40.308Z,3.30
2023-03-15T23:36:08.941Z,6.13
2023-03-15T23:38:38.327Z,2.17
2023-03-15T23:41:07.011Z,3.83
2023-03-15T23:43:35.038Z,5.53
2023-03-15T23:46:04.802Z,6.33
2023-03-15T23:48:35.263Z,4.87
2023-03-15T23:51:04.344Z,5.07
2023-03-15T23:53:32.747Z,4.07
2023-03-15T23:56:02.564Z,4.13
2023-03-15T23:58:30.635Z,5.03
